Time;durP1;ratioP1;P1;durP2;ratioP2;P2;SDS_P1;SDS_P2;PMS_P1;PMS_P2;Temp;Humidity;BMP_temperature;BMP_pressure;BME280_temperature;BME280_humidity;BME280_pressure;Samples;Min_cycle;Max_cycle;Signal;HPM_P1;HPM_P2
2023/10/10 00:01:17;;;;;;;14.23;3.55;;;;;;;13.99;79.11;97810.19;5042737;28;20564;-62
2023/10/10 00:03:45;;;;;;;10.18;3.15;;;;;;;14.02;78.50;97808.84;5048688;28;20050;-62
2023/10/10 00:06:13;;;;;;;12.80;4.00;;;;;;;13.65;80.81;97807.78;5049031;28;20097;-62
2023/10/10 00:08:41;;;;;;;8.25;2.90;;;;;;;13.50;81.91;97806.59;5046585;28;20057;-62
2023/10/10 00:11:16;;;;;;;14.70;3.67;;;;;;;13.50;81.88;97808.50;5051572;28;20067;-62
2023/10/10 00:13:43;;;;;;;11.35;3.20;;;;;;;13.21;83.74;97806.88;5052977;28;20045;-61
2023/10/10 00:16:11;;;;;;;10.98;3.45;;;;;;;13.08;84.96;97808.13;5039815;28;20128;-61
2023/10/10 00:18:43;;;;;;;11.15;3.25;;;;;;;12.94;86.05;97812.34;5045354;28;20559;-62
2023/10/10 00:21:13;;;;;;;11.48;4.60;;;;;;;12.88;85.58;97809.56;5041535;28;20103;-61
2023/10/10 00:23:42;;;;;;;9.48;3.78;;;;;;;12.92;85.11;97809.03;5044906;28;20041;-62
2023/10/10 00:26:14;;;;;;;11.90;3.08;;;;;;;13.00;84.33;97808.56;5040350;28;20244;-61
2023/10/10 00:28:45;;;;;;;17.85;4.13;;;;;;;13.03;83.72;97802.63;5043683;28;20052;-62
2023/10/10 00:31:17;;;;;;;10.52;4.47;;;;;;;13.06;83.46;97798.56;5044254;28;20041;-62
2023/10/10 00:33:46;;;;;;;13.05;4.07;;;;;;;12.88;84.64;97801.41;5040043;28;20069;-62
2023/10/10 00:36:12;;;;;;;9.73;3.60;;;;;;;12.95;83.63;97800.38;5036553;28;20041;-61
2023/10/10 00:38:39;;;;;;;13.73;3.88;;;;;;;12.77;84.95;97788.78;5032311;28;20124;-61
2023/10/10 00:41:09;;;;;;;10.25;3.45;;;;;;;12.59;86.63;97789.97;5043617;28;20037;-61
2023/10/10 00:43:37;;;;;;;9.70;3.30;;;;;;;12.43;87.93;97794.41;5040002;28;20125;-61
2023/10/10 00:46:07;;;;;;;10.45;3.42;;;;;;;12.30;89.06;97788.28;5055254;28;20055;-61
2023/10/10 00:48:38;;;;;;;9.73;3.17;;;;;;;12.33;88.49;97781.50;5042871;28;20067;-61
2023/10/10 00:51:11;;;;;;;10.25;3.58;;;;;;;12.39;87.83;97785.94;5038743;28;20029;-61
2023/10/10 00:53:45;;;;;;;11.63;3.22;;;;;;;12.38;88.20;97781.56;5046146;28;20041;-61
2023/10/10 00:56:13;;;;;;;11.43;3.50;;;;;;;12.48;87.33;97784.44;5045800;28;20036;-61
2023/10/10 00:58:41;;;;;;;10.05;3.42;;;;;;;12.38;87.90;97778.84;5045166;28;20122;-61
2023/10/10 01:01:14;;;;;;;10.63;3.28;;;;;;;12.54;87.09;97779.03;5046943;28;20103;-61
2023/10/10 01:03:45;;;;;;;9.98;3.05;;;;;;;12.53;86.93;97786.34;5042136;28;20676;-62
2023/10/10 01:06:29;;;;;;;11.47;3.70;;;;;;;12.21;88.68;97790.59;5046933;28;20045;-61
2023/10/10 01:09:20;;;;;;;9.68;3.60;;;;;;;12.01;90.09;97782.19;5044222;28;20995;-62
2023/10/10 01:11:49;;;;;;;11.98;3.78;;;;;;;11.89;90.90;97788.53;5041676;28;20045;-62
2023/10/10 01:14:18;;;;;;;11.02;3.75;;;;;;;11.80;91.41;97782.72;5033054;28;20041;-61
2023/10/10 01:16:57;;;;;;;11.18;4.30;;;;;;;11.77;91.63;97776.97;5048919;28;20116;-62
2023/10/10 01:19:31;;;;;;;13.20;3.38;;;;;;;11.82;91.26;97777.88;5044727;28;20059;-61
2023/10/10 01:21:58;;;;;;;10.32;3.38;;;;;;;11.78;91.44;97773.19;5042869;28;20125;-61
2023/10/10 01:24:25;;;;;;;13.82;3.67;;;;;;;11.68;92.14;97773.84;5043703;28;20893;-61
2023/10/10 01:26:53;;;;;;;12.85;3.58;;;;;;;11.57;92.88;97773.72;5042902;28;20045;-61
2023/10/10 01:29:27;;;;;;;12.23;3.72;;;;;;;11.58;92.67;97775.34;5047018;28;20694;-61
2023/10/10 01:31:58;;;;;;;14.73;4.35;;;;;;;11.49;93.34;97766.00;5050079;28;20059;-61
2023/10/10 01:34:32;;;;;;;13.35;3.45;;;;;;;11.36;94.00;97764.47;5045469;28;20110;-61
2023/10/10 01:37:07;;;;;;;11.82;3.97;;;;;;;11.35;94.42;97770.94;5042649;28;20053;-62
2023/10/10 01:40:17;;;;;;;10.50;3.53;;;;;;;11.43;94.28;97769.72;5041946;28;20049;-61
2023/10/10 01:42:51;;;;;;;9.20;3.28;;;;;;;11.56;94.09;97771.25;5055361;28;20029;-62
2023/10/10 01:45:26;;;;;;;9.25;3.88;;;;;;;11.53;93.44;97769.84;5039210;28;20045;-62
2023/10/10 01:48:08;;;;;;;10.32;3.38;;;;;;;11.45;93.90;97767.56;5038641;28;20131;-62
2023/10/10 01:50:34;;;;;;;19.30;3.72;;;;;;;11.41;94.33;97766.41;5039160;28;20056;-61
2023/10/10 01:53:01;;;;;;;12.35;3.75;;;;;;;11.35;94.95;97762.00;5060378;28;20508;-62
2023/10/10 01:55:27;;;;;;;9.35;3.58;;;;;;;11.17;96.24;97769.31;5043920;28;20496;-62
2023/10/10 01:57:57;;;;;;;7.25;3.22;;;;;;;11.06;97.04;97763.72;5040375;28;20051;-62
2023/10/10 02:02:52;;;;;;;15.23;4.30;;;;;;;11.05;97.46;97764.78;5043366;28;20321;-62
2023/10/10 02:08:04;;;;;;;;;;;;;;;10.94;98.40;97754.81;5045278;28;20071;-61
2023/10/10 02:10:32;;;;;;;13.68;3.50;;;;;;;10.98;98.30;97763.31;5039724;28;19931;-61
2023/10/10 02:12:59;;;;;;;11.30;3.50;;;;;;;11.01;98.10;97752.78;5047040;28;20033;-62
2023/10/10 02:15:35;;;;;;;11.05;3.47;;;;;;;10.96;98.45;97750.00;5035022;28;20050;-61
2023/10/10 02:18:06;;;;;;;14.18;4.00;;;;;;;10.88;99.19;97753.09;5043265;28;20041;-61
2023/10/10 02:20:34;;;;;;;12.77;3.10;;;;;;;10.84;99.41;97755.47;5044706;28;20047;-61
2023/10/10 02:25:37;;;;;;;10.02;3.28;;;;;;;10.91;99.04;97749.91;5041393;28;20049;-61
2023/10/10 02:28:20;;;;;;;14.13;4.05;;;;;;;10.83;99.70;97751.13;5041186;28;20047;-62
2023/10/10 02:30:51;;;;;;;12.40;3.28;;;;;;;10.73;100.00;97751.75;5042177;28;20041;-62
2023/10/10 02:35:56;;;;;;;12.15;4.18;;;;;;;10.53;100.00;97742.22;5041268;28;20049;-61
2023/10/10 02:38:34;;;;;;;12.30;3.90;;;;;;;10.58;100.00;97751.50;5040828;28;20098;-62
2023/10/10 02:46:38;;;;;;;11.25;4.00;;;;;;;10.56;100.00;97759.03;5045896;28;20123;-62
2023/10/10 02:49:12;;;;;;;10.35;4.07;;;;;;;10.61;100.00;97751.81;5044753;28;20045;-62
2023/10/10 02:51:43;;;;;;;10.88;3.42;;;;;;;10.60;100.00;97754.75;5036645;28;20033;-62
2023/10/10 02:54:34;;;;;;;13.35;3.65;;;;;;;10.54;100.00;97746.56;5045242;28;20431;-62
2023/10/10 03:02:53;;;;;;;10.63;3.35;;;;;;;10.67;100.00;97739.19;5049452;28;20041;-62
2023/10/10 03:08:15;;;;;;;12.13;4.28;;;;;;;10.54;100.00;97748.44;5043765;28;20033;-62
2023/10/10 03:10:46;;;;;;;13.90;4.15;;;;;;;10.41;100.00;97744.94;5036468;28;20064;-62
2023/10/10 03:13:30;;;;;;;13.27;4.32;;;;;;;10.46;100.00;97744.25;5040152;28;20111;-62
2023/10/10 03:16:29;;;;;;;13.20;5.53;;;;;;;10.36;100.00;97749.44;5033365;28;20040;-62
2023/10/10 03:21:51;;;;;;;9.32;3.67;;;;;;;10.36;100.00;97741.31;5038580;28;20107;-62
2023/10/10 03:27:01;;;;;;;8.68;3.33;;;;;;;10.51;100.00;97741.63;5036924;28;20557;-62
2023/10/10 03:29:37;;;;;;;13.55;3.58;;;;;;;10.57;100.00;97737.13;5033995;28;20044;-61
2023/10/10 03:35:13;;;;;;;8.75;3.65;;;;;;;10.68;100.00;97740.84;5019879;28;20057;-62
2023/10/10 03:37:41;;;;;;;10.38;3.97;;;;;;;10.64;100.00;97754.06;5041972;28;20033;-62
2023/10/10 03:40:26;;;;;;;12.60;4.20;;;;;;;10.12;100.00;97752.22;5044494;28;20102;-61
2023/10/10 05:25:15;;;;;;;12.95;4.22;;;;;;;9.40;100.00;97754.19;5033851;28;20041;-63
2023/10/10 05:27:42;;;;;;;8.55;3.88;;;;;;;9.45;100.00;97759.72;5042936;28;20045;-62
2023/10/10 05:30:23;;;;;;;12.02;4.50;;;;;;;9.51;100.00;97764.16;5034524;28;20048;-63
2023/10/10 05:33:03;;;;;;;10.88;3.97;;;;;;;9.53;100.00;97756.66;5037180;28;20048;-63
2023/10/10 05:35:38;;;;;;;10.85;4.50;;;;;;;9.46;100.00;97759.47;5032536;28;20052;-63
2023/10/10 05:38:07;;;;;;;12.60;4.25;;;;;;;9.57;100.00;97754.28;5043049;28;20071;-62
2023/10/10 05:40:34;;;;;;;14.75;4.60;;;;;;;9.50;100.00;97749.84;5038374;28;20129;-63
2023/10/10 05:43:02;;;;;;;8.02;3.33;;;;;;;9.57;100.00;97757.81;5038247;28;20824;-63
2023/10/10 05:45:29;;;;;;;11.35;4.40;;;;;;;9.52;100.00;97759.59;5042244;28;20124;-62
2023/10/10 05:47:56;;;;;;;14.40;4.80;;;;;;;9.55;100.00;97762.63;5038305;28;20120;-63
2023/10/10 05:50:23;;;;;;;15.75;4.45;;;;;;;9.45;100.00;97759.72;5040138;28;20160;-60
2023/10/10 05:52:49;;;;;;;11.57;4.05;;;;;;;9.39;100.00;97753.34;5040168;28;20045;-62
2023/10/10 05:55:16;;;;;;;11.70;4.65;;;;;;;9.36;100.00;97767.31;5047859;28;20037;-63
2023/10/10 05:57:43;;;;;;;13.32;4.78;;;;;;;9.46;100.00;97774.84;5050231;28;20767;-62
2023/10/10 06:00:10;;;;;;;13.10;4.40;;;;;;;9.45;100.00;97776.75;5040444;28;20064;-63
2023/10/10 06:02:47;;;;;;;14.50;4.33;;;;;;;9.46;100.00;97775.69;5039798;28;20044;-62
2023/10/10 06:05:17;;;;;;;14.55;4.30;;;;;;;9.42;100.00;97779.91;5043806;28;20049;-63
2023/10/10 06:07:44;;;;;;;12.73;4.43;;;;;;;9.33;100.00;97779.44;5047653;28;20041;-62
2023/10/10 06:10:16;;;;;;;11.15;3.88;;;;;;;9.45;100.00;97778.63;5038361;28;20120;-63
2023/10/10 06:12:44;;;;;;;15.13;4.65;;;;;;;9.66;100.00;97785.31;5037319;28;20041;-62
2023/10/10 06:15:11;;;;;;;14.75;4.20;;;;;;;9.84;100.00;97784.38;5042436;28;20052;-63
2023/10/10 06:17:39;;;;;;;14.20;4.68;;;;;;;9.96;100.00;97778.97;5047240;28;20040;-63
2023/10/10 06:20:06;;;;;;;11.35;4.00;;;;;;;10.04;100.00;97782.34;5045184;28;20041;-63
2023/10/10 06:22:33;;;;;;;14.50;3.80;;;;;;;10.05;100.00;97782.09;5034596;28;20032;-63
2023/10/10 06:24:59;;;;;;;13.00;4.63;;;;;;;10.00;100.00;97782.81;5047052;28;20051;-63
2023/10/10 06:27:28;;;;;;;13.23;5.03;;;;;;;9.96;100.00;97775.41;5054856;28;20044;-63
2023/10/10 06:29:58;;;;;;;10.07;4.05;;;;;;;9.96;100.00;97776.25;5047202;28;20049;-62
2023/10/10 06:32:26;;;;;;;12.32;4.65;;;;;;;10.04;100.00;97782.34;5050509;28;20125;-63
2023/10/10 06:35:16;;;;;;;17.92;5.32;;;;;;;10.12;100.00;97788.22;5043049;28;20033;-63
2023/10/10 06:37:40;;;;;;;14.77;4.15;;;;;;;10.15;100.00;97781.50;5051028;28;20045;-63
2023/10/10 06:40:11;;;;;;;12.05;5.00;;;;;;;10.20;100.00;97787.00;5043933;28;20051;-63
2023/10/10 06:42:38;;;;;;;12.05;4.40;;;;;;;10.31;100.00;97788.03;5048179;28;20036;-63
2023/10/10 06:45:11;;;;;;;11.95;4.20;;;;;;;10.40;100.00;97778.47;5044805;28;20535;-62
2023/10/10 06:47:43;;;;;;;15.45;4.13;;;;;;;10.56;100.00;97788.81;5043928;28;20124;-62
2023/10/10 06:50:13;;;;;;;11.30;4.18;;;;;;;10.64;100.00;97796.53;5043477;28;20405;-63
2023/10/10 06:52:39;;;;;;;12.88;4.00;;;;;;;10.78;100.00;97794.38;5043996;28;20444;-62
2023/10/10 06:55:10;;;;;;;15.07;4.55;;;;;;;10.87;100.00;97792.09;5044326;28;20048;-63
2023/10/10 06:57:41;;;;;;;10.13;4.25;;;;;;;10.99;100.00;97787.41;5049821;28;20073;-63
2023/10/10 07:00:27;;;;;;;11.23;3.97;;;;;;;11.12;100.00;97788.16;5045371;28;20041;-63
2023/10/10 07:02:59;;;;;;;13.00;4.35;;;;;;;11.28;99.86;97783.84;5035687;28;20053;-63
2023/10/10 07:05:27;;;;;;;7.68;3.15;;;;;;;11.39;100.00;97788.34;5041998;28;20046;-63
2023/10/10 07:08:12;;;;;;;11.75;3.80;;;;;;;11.57;100.00;97794.56;5050701;28;20045;-63
2023/10/10 07:10:42;;;;;;;20.30;4.85;;;;;;;11.76;99.35;97788.91;5039592;28;20527;-62
2023/10/10 07:13:18;;;;;;;16.50;3.85;;;;;;;11.94;98.42;97795.94;5042159;28;20037;-62
2023/10/10 07:15:52;;;;;;;9.88;3.53;;;;;;;12.09;96.99;97790.72;5033605;28;20477;-63
2023/10/10 07:18:22;;;;;;;13.10;4.45;;;;;;;12.18;96.94;97801.16;5029781;28;20681;-62
2023/10/10 07:21:26;;;;;;;10.13;4.30;;;;;;;12.35;96.88;97796.47;5045677;28;20412;-61
2023/10/10 07:24:13;;;;;;;13.52;3.70;;;;;;;12.46;96.60;97799.34;5038284;28;20645;-61
2023/10/10 07:26:41;;;;;;;8.73;3.50;;;;;;;12.58;96.56;97805.44;5040521;28;20068;-62
2023/10/10 07:29:26;;;;;;;11.05;4.35;;;;;;;12.68;95.85;97804.72;5041250;28;20056;-65
2023/10/10 07:31:54;;;;;;;12.70;4.35;;;;;;;12.79;95.64;97805.66;5040406;28;20494;-61
2023/10/10 07:34:34;;;;;;;14.30;4.25;;;;;;;12.85;94.80;97801.94;5048274;28;20040;-61
2023/10/10 07:37:08;;;;;;;11.27;3.78;;;;;;;12.95;93.52;97812.09;5041298;28;20048;-61
2023/10/10 07:39:36;;;;;;;13.48;3.88;;;;;;;13.04;91.07;97812.41;5037814;28;20048;-61
2023/10/10 07:42:09;;;;;;;13.50;3.72;;;;;;;13.17;88.75;97813.91;5037993;28;20048;-61
2023/10/10 07:44:38;;;;;;;14.38;3.85;;;;;;;13.31;87.38;97802.59;5037456;28;20041;-60
2023/10/10 07:49:50;;;;;;;16.48;4.85;;;;;;;13.60;83.66;97807.75;5035036;28;20048;-61
2023/10/10 07:52:20;;;;;;;9.25;3.38;;;;;;;13.75;82.33;97807.84;5046012;28;20052;-65
2023/10/10 07:54:51;;;;;;;11.82;3.88;;;;;;;13.89;81.81;97813.66;5040111;28;20117;-61
2023/10/10 07:57:22;;;;;;;10.55;3.97;;;;;;;14.01;81.42;97810.72;5042475;28;20055;-60
2023/10/10 07:59:49;;;;;;;14.77;4.00;;;;;;;14.11;80.69;97815.41;5042692;28;20133;-60
2023/10/10 08:05:13;;;;;;;10.65;4.47;;;;;;;14.41;79.15;97807.69;5041786;28;20055;-60
2023/10/10 08:07:39;;;;;;;;;;;;;;;14.51;78.64;97810.44;5044679;28;20142;-60
2023/10/10 08:12:52;;;;;;;9.63;3.63;;;;;;;14.69;77.30;97806.41;5046630;28;20447;-62
2023/10/10 08:15:24;;;;;;;9.82;3.55;;;;;;;14.79;77.16;97810.25;5048187;28;20120;-63
2023/10/10 08:17:54;;;;;;;12.35;4.38;;;;;;;14.92;75.63;97808.91;5041484;28;20068;-63
2023/10/10 08:23:11;;;;;;;12.27;4.57;;;;;;;15.24;71.62;97818.78;5040837;28;20063;-64
2023/10/10 08:25:37;;;;;;;8.90;3.30;;;;;;;15.41;71.16;97818.50;5039190;28;20041;-64
2023/10/10 08:28:04;;;;;;;8.45;3.35;;;;;;;15.53;71.16;97822.88;5042191;28;20659;-64
2023/10/10 08:30:32;;;;;;;10.77;3.38;;;;;;;15.63;70.52;97819.34;5046327;28;20036;-64
2023/10/10 08:33:00;;;;;;;12.20;3.78;;;;;;;15.74;67.04;97820.97;5035572;28;20038;-60
2023/10/10 08:35:30;;;;;;;9.65;3.70;;;;;;;15.85;65.41;97810.84;5043902;28;20147;-63
2023/10/10 08:37:57;;;;;;;10.48;4.13;;;;;;;15.97;65.12;97811.41;5045520;28;20059;-61
2023/10/10 08:40:33;;;;;;;8.98;4.13;;;;;;;16.11;64.94;97816.28;5043337;28;20105;-61
2023/10/10 08:43:03;;;;;;;8.52;3.80;;;;;;;16.27;64.89;97816.22;5034766;28;20037;-61
2023/10/10 08:45:39;;;;;;;12.35;4.00;;;;;;;16.43;58.80;97823.28;5043084;28;20563;-61
2023/10/10 08:48:12;;;;;;;10.93;4.00;;;;;;;16.62;57.08;97815.25;5041133;28;20135;-62
2023/10/10 08:50:40;;;;;;;8.82;3.83;;;;;;;16.88;57.59;97814.34;5044290;28;20102;-62
2023/10/10 08:53:10;;;;;;;10.43;4.07;;;;;;;17.07;54.72;97810.94;5050500;28;20039;-62
2023/10/10 08:55:40;;;;;;;10.65;4.28;;;;;;;17.20;52.60;97812.22;5044364;28;20052;-60
2023/10/10 08:58:08;;;;;;;9.02;3.67;;;;;;;17.32;47.99;97806.41;5054150;28;20139;-61
2023/10/10 09:00:35;;;;;;;10.65;4.05;;;;;;;17.45;47.49;97813.97;5038242;28;20412;-63
2023/10/10 09:03:02;;;;;;;9.45;4.18;;;;;;;17.56;46.91;97806.47;5033197;28;20604;-62
2023/10/10 09:05:29;;;;;;;9.35;3.65;;;;;;;17.70;47.39;97803.88;5039424;28;20037;-65
2023/10/10 09:08:06;;;;;;;12.70;4.80;;;;;;;17.83;47.30;97807.84;5037916;28;20056;-62
2023/10/10 09:10:42;;;;;;;14.23;4.25;;;;;;;17.95;48.39;97796.53;5039119;28;20516;-63
2023/10/10 09:13:09;;;;;;;10.27;4.35;;;;;;;18.06;48.76;97799.97;5035989;28;20072;-61
2023/10/10 09:15:36;;;;;;;8.52;4.13;;;;;;;18.17;48.55;97801.50;5045710;28;20049;-58
2023/10/10 09:18:12;;;;;;;9.35;4.22;;;;;;;18.28;48.92;97796.72;5038503;28;20499;-60
2023/10/10 09:20:39;;;;;;;14.38;4.43;;;;;;;18.43;47.58;97805.88;5049740;28;20056;-58
2023/10/10 09:23:23;;;;;;;8.10;3.65;;;;;;;18.55;47.18;97806.28;5047299;28;20052;-62
2023/10/10 09:25:57;;;;;;;10.57;4.57;;;;;;;18.68;46.36;97807.47;5041268;28;20051;-59
2023/10/10 09:28:30;;;;;;;15.38;4.68;;;;;;;18.82;46.32;97799.34;5044979;28;20040;-65
2023/10/10 09:31:03;;;;;;;10.88;3.88;;;;;;;18.97;45.77;97803.78;5042839;28;20041;-64
2023/10/10 09:33:33;;;;;;;11.55;4.63;;;;;;;19.04;46.20;97803.41;5051448;28;20041;-59
2023/10/10 09:36:08;;;;;;;10.30;4.03;;;;;;;19.13;45.25;97798.09;5040587;28;20447;-66
2023/10/10 09:38:46;;;;;;;10.90;4.25;;;;;;;19.22;45.36;97798.22;5033123;28;20049;-65
2023/10/10 09:58:16;;;;;;;14.80;5.13;;;;;;;19.82;42.72;97813.16;5044657;28;20601;-65
2023/10/10 10:06:34;;;;;;;11.57;4.93;;;;;;;20.00;43.55;97813.41;5048633;28;20068;-65
2023/10/10 10:09:19;;;;;;;10.95;5.35;;;;;;;20.15;43.69;97817.81;5036463;28;20219;-65
2023/10/10 10:12:04;;;;;;;11.85;4.22;;;;;;;20.16;42.76;97807.63;5050232;28;20146;-64
2023/10/10 10:14:55;;;;;;;9.27;3.78;;;;;;;20.24;43.41;97817.94;5041388;28;20048;-65
2023/10/10 10:17:53;;;;;;;10.63;3.95;;;;;;;20.30;44.00;97813.16;5049909;28;20098;-65
2023/10/10 10:23:33;;;;;;;11.88;4.60;;;;;;;20.43;43.68;97819.75;5042578;28;20079;-65
2023/10/10 10:26:10;;;;;;;15.43;4.32;;;;;;;20.43;43.58;97814.25;5029712;28;20037;-65
2023/10/10 10:28:41;;;;;;;9.77;3.72;;;;;;;20.44;43.72;97813.94;5051348;28;20059;-66
2023/10/10 10:31:27;;;;;;;10.77;4.68;;;;;;;20.43;43.72;97809.56;5050410;28;20447;-65
2023/10/10 10:34:31;;;;;;;9.77;4.13;;;;;;;20.47;43.18;97818.84;5041487;28;20041;-65
2023/10/10 10:37:19;;;;;;;9.05;4.32;;;;;;;20.59;43.47;97812.00;5049390;28;20068;-66
2023/10/10 10:42:40;;;;;;;14.57;5.30;;;;;;;20.78;42.77;97815.44;5044147;28;20067;-60
2023/10/10 10:45:36;;;;;;;10.93;4.15;;;;;;;20.89;42.07;97820.72;5041897;28;20037;-60
2023/10/10 10:48:29;;;;;;;11.77;4.30;;;;;;;20.95;41.45;97813.19;5036000;28;20064;-59
2023/10/10 10:51:22;;;;;;;13.00;4.07;;;;;;;21.05;41.73;97813.75;5044995;28;20730;-58
2023/10/10 10:53:59;;;;;;;11.95;3.92;;;;;;;21.16;41.78;97821.81;5040443;28;20042;-60
2023/10/10 10:59:12;;;;;;;12.52;4.70;;;;;;;21.23;40.82;97813.09;5051024;28;20049;-59
2023/10/10 11:01:42;;;;;;;;;;;;;;;21.32;41.49;97811.22;5046759;28;20128;-60
2023/10/10 11:04:16;;;;;;;11.90;5.47;;;;;;;21.39;41.33;97808.03;5033823;28;19960;-59
2023/10/10 11:07:00;;;;;;;10.40;4.50;;;;;;;21.39;40.68;97810.78;5037109;28;20049;-60
2023/10/10 11:09:31;;;;;;;8.80;3.90;;;;;;;21.41;40.93;97811.31;5040298;28;20045;-60
2023/10/10 11:12:02;;;;;;;10.38;4.47;;;;;;;21.51;40.91;97810.22;5045716;28;20531;-60
2023/10/10 11:14:34;;;;;;;11.93;4.57;;;;;;;21.56;40.58;97807.34;5052206;28;20045;-60
2023/10/10 11:17:01;;;;;;;11.57;4.20;;;;;;;21.64;42.22;97805.78;5035959;28;20520;-60
2023/10/10 11:22:12;;;;;;;11.30;4.65;;;;;;;21.77;42.34;97801.34;5039553;28;20614;-60
2023/10/10 11:24:39;;;;;;;10.83;4.53;;;;;;;21.89;42.01;97789.75;5033311;28;20037;-60
2023/10/10 11:29:47;;;;;;;14.95;4.90;;;;;;;22.05;43.18;97782.69;5034449;28;20061;-60
2023/10/10 11:32:24;;;;;;;9.35;4.03;;;;;;;22.03;43.01;97773.91;5028448;28;20091;-61
2023/10/10 11:34:56;;;;;;;9.50;4.15;;;;;;;22.10;42.46;97776.19;5035617;28;20041;-61
2023/10/10 11:37:31;;;;;;;11.80;4.10;;;;;;;22.18;43.32;97767.16;5043094;28;20712;-60
2023/10/10 11:42:59;;;;;;;11.38;3.88;;;;;;;22.35;42.20;97766.41;5038171;28;20578;-59
2023/10/10 11:45:26;;;;;;;13.88;4.60;;;;;;;22.49;42.29;97757.19;5035172;28;20108;-58
2023/10/10 11:48:00;;;;;;;15.85;5.10;;;;;;;22.63;42.41;97754.31;5047036;28;20044;-58
2023/10/10 11:50:56;;;;;;;22.75;5.53;;;;;;;22.69;42.34;97752.19;5044432;28;20128;-59
2023/10/10 11:53:24;;;;;;;10.82;4.43;;;;;;;22.68;42.22;97745.88;5045747;28;20047;-60
2023/10/10 11:55:52;;;;;;;10.52;3.92;;;;;;;22.69;41.83;97750.25;5056440;28;20148;-60
2023/10/10 11:58:19;;;;;;;9.95;4.97;;;;;;;22.73;42.13;97742.13;5040405;28;20057;-60
2023/10/10 12:00:59;;;;;;;7.95;3.60;;;;;;;22.82;42.56;97750.44;5044659;28;20048;-61
2023/10/10 12:06:15;;;;;;;10.45;4.65;;;;;;;22.86;42.56;97741.16;5038929;28;20033;-61
2023/10/10 12:08:45;;;;;;;8.70;3.80;;;;;;;22.91;42.49;97740.19;5047851;28;20048;-61
2023/10/10 12:11:12;;;;;;;11.47;3.97;;;;;;;23.01;42.57;97728.00;5042249;28;20102;-61
2023/10/10 12:13:39;;;;;;;11.07;4.68;;;;;;;23.10;42.65;97731.56;5044343;28;20040;-61
2023/10/10 12:16:12;;;;;;;11.88;4.53;;;;;;;23.10;42.55;97728.00;5040277;28;20041;-67
2023/10/10 12:18:49;;;;;;;12.73;4.53;;;;;;;23.19;42.63;97726.06;5043413;28;20210;-67
2023/10/10 12:21:23;;;;;;;9.45;4.28;;;;;;;23.23;42.25;97724.25;5045195;28;20064;-65
2023/10/10 12:23:53;;;;;;;15.20;5.07;;;;;;;23.11;41.98;97733.19;5045077;28;20196;-66
2023/10/10 12:26:26;;;;;;;13.25;5.25;;;;;;;23.09;41.93;97726.38;5055336;28;20037;-65
2023/10/10 12:28:53;;;;;;;11.45;4.32;;;;;;;23.10;42.13;97719.69;5046437;28;20053;-61
2023/10/10 12:31:23;;;;;;;15.50;4.70;;;;;;;23.14;42.31;97723.44;5040079;28;20037;-66
2023/10/10 12:33:53;;;;;;;11.13;4.28;;;;;;;23.25;42.58;97721.97;5037815;28;20046;-66
2023/10/10 12:36:28;;;;;;;11.15;5.03;;;;;;;23.26;42.57;97717.28;5046441;28;20532;-66
2023/10/10 12:38:57;;;;;;;14.25;4.28;;;;;;;23.20;42.15;97719.38;5043841;28;20038;-66
2023/10/10 12:41:25;;;;;;;12.77;3.92;;;;;;;23.25;42.51;97715.63;5046663;28;20049;-61
2023/10/10 12:43:51;;;;;;;10.38;4.15;;;;;;;23.33;42.70;97712.03;5049753;28;20124;-59
2023/10/10 12:46:20;;;;;;;15.95;5.35;;;;;;;23.40;43.24;97703.28;5032378;28;20116;-60
2023/10/10 12:48:51;;;;;;;13.23;5.00;;;;;;;23.48;43.48;97713.50;5055076;28;20048;-61
2023/10/10 12:51:19;;;;;;;11.77;4.50;;;;;;;23.38;41.84;97705.56;5050873;28;20048;-61
2023/10/10 12:53:46;;;;;;;13.85;4.68;;;;;;;23.41;42.25;97701.31;5041236;28;20052;-62
2023/10/10 12:56:20;;;;;;;12.32;4.25;;;;;;;23.42;43.09;97701.00;5049408;28;20079;-62
2023/10/10 12:58:55;;;;;;;12.48;4.93;;;;;;;23.40;43.05;97703.28;5043436;28;20111;-61
2023/10/10 13:01:27;;;;;;;9.95;4.70;;;;;;;23.49;42.74;97700.50;5036043;28;20407;-61
2023/10/10 13:03:53;;;;;;;12.55;4.30;;;;;;;23.56;42.76;97699.97;5039517;28;20125;-61
2023/10/10 13:06:22;;;;;;;12.10;4.20;;;;;;;23.65;41.98;97698.00;5034608;28;20049;-61
2023/10/10 13:11:20;;;;;;;11.15;4.07;;;;;;;23.74;41.22;97703.50;5048657;28;20048;-61
2023/10/10 13:13:59;;;;;;;10.52;4.50;;;;;;;23.77;41.73;97698.09;5041651;28;20116;-59
2023/10/10 13:16:52;;;;;;;13.27;4.95;;;;;;;23.82;41.42;97702.66;5050228;28;20037;-64
2023/10/10 13:19:20;;;;;;;10.68;4.07;;;;;;;23.83;41.39;97697.91;5034528;28;20049;-64
2023/10/10 13:21:48;;;;;;;16.65;4.88;;;;;;;23.89;40.90;97696.59;5040044;28;20049;-64
2023/10/10 13:24:15;;;;;;;12.88;4.63;;;;;;;24.01;41.18;97696.72;5047288;28;20189;-64
2023/10/10 13:26:45;;;;;;;14.25;5.72;;;;;;;23.84;40.82;97700.34;5041689;28;20045;-64
2023/10/10 13:29:15;;;;;;;11.73;4.10;;;;;;;23.87;41.02;97696.94;5041909;28;20121;-64
2023/10/10 13:31:47;;;;;;;12.60;4.60;;;;;;;23.88;42.05;97692.22;5034739;28;20057;-58
2023/10/10 13:34:16;;;;;;;12.65;3.92;;;;;;;23.86;42.06;97695.31;5037265;28;20043;-61
2023/10/10 13:36:43;;;;;;;17.73;4.72;;;;;;;23.93;42.00;97702.28;5049975;28;20151;-60
2023/10/10 13:39:15;;;;;;;14.13;4.65;;;;;;;24.03;42.18;97690.84;5055409;28;20511;-61
2023/10/10 13:41:41;;;;;;;12.18;4.07;;;;;;;24.01;42.43;97698.66;5039819;28;20045;-63
2023/10/10 13:44:10;;;;;;;11.25;4.00;;;;;;;24.03;41.98;97686.13;5051399;28;20842;-62
2023/10/10 13:46:37;;;;;;;13.30;4.70;;;;;;;23.85;42.45;97692.88;5045251;28;20123;-61
2023/10/10 13:49:04;;;;;;;15.32;5.07;;;;;;;23.90;42.33;97689.94;5040032;28;20586;-60
2023/10/10 13:51:39;;;;;;;13.43;4.45;;;;;;;23.75;42.67;97689.34;5038562;28;20040;-62
2023/10/10 13:54:06;;;;;;;14.07;5.07;;;;;;;23.58;42.96;97690.22;5038261;28;20064;-62
2023/10/10 13:56:33;;;;;;;11.27;5.00;;;;;;;23.57;43.18;97693.31;5053919;28;20500;-62
2023/10/10 13:59:00;;;;;;;10.80;4.60;;;;;;;23.78;43.06;97687.88;5051325;28;20597;-64
2023/10/10 14:01:29;;;;;;;14.88;4.47;;;;;;;23.76;42.66;97679.91;5044296;28;20041;-64
2023/10/10 14:04:01;;;;;;;12.00;4.63;;;;;;;23.93;42.58;97683.75;5038862;28;20087;-63
2023/10/10 14:06:34;;;;;;;16.83;4.47;;;;;;;24.40;41.71;97690.34;5043203;28;20060;-61
2023/10/10 14:09:03;;;;;;;15.00;5.22;;;;;;;24.49;41.19;97685.53;5048548;28;20065;-61
2023/10/10 14:11:32;;;;;;;10.93;4.97;;;;;;;24.80;40.64;97681.53;5049109;28;20051;-62
2023/10/10 14:13:59;;;;;;;13.05;5.40;;;;;;;25.15;39.63;97687.94;5055264;28;20049;-61
2023/10/10 14:16:26;;;;;;;19.10;4.85;;;;;;;25.03;39.98;97688.72;5051332;28;20049;-62
2023/10/10 14:18:52;;;;;;;12.70;4.53;;;;;;;24.97;39.74;97678.97;5043568;28;20713;-61
2023/10/10 14:21:25;;;;;;;12.30;4.32;;;;;;;24.94;39.67;97678.53;5045770;28;20064;-61
2023/10/10 14:24:07;;;;;;;12.10;4.75;;;;;;;25.61;38.62;97681.59;5037998;28;20045;-67
2023/10/10 14:26:36;;;;;;;13.63;4.20;;;;;;;25.61;38.33;97692.69;5045734;28;20508;-64
2023/10/10 14:29:08;;;;;;;13.75;4.93;;;;;;;25.83;38.02;97677.56;5035065;28;20119;-64
2023/10/10 14:31:42;;;;;;;11.93;4.38;;;;;;;25.76;38.10;97671.81;5038985;28;20041;-62
2023/10/10 14:34:38;;;;;;;12.70;4.22;;;;;;;25.74;38.62;97677.69;5043791;28;20037;-62
2023/10/10 14:37:00;;;;;;;11.93;4.55;;;;;;;25.79;38.42;97677.47;5051642;28;20700;-59
2023/10/10 14:39:36;;;;;;;14.30;4.80;;;;;;;25.93;38.34;97671.56;5032999;28;20128;-59
2023/10/10 14:42:03;;;;;;;10.70;4.10;;;;;;;26.21;37.99;97678.38;5049921;28;20120;-59
2023/10/10 14:44:31;;;;;;;11.38;4.20;;;;;;;26.20;37.55;97676.75;5042399;28;20037;-59
2023/10/10 14:46:58;;;;;;;13.67;4.33;;;;;;;26.28;37.86;97670.31;5042507;28;20144;-59
2023/10/10 14:49:31;;;;;;;11.88;4.45;;;;;;;26.07;37.66;97667.63;5042507;28;20045;-62
2023/10/10 14:52:06;;;;;;;15.63;4.13;;;;;;;25.70;38.67;97669.25;5046707;28;20155;-63
2023/10/10 14:54:37;;;;;;;20.15;4.70;;;;;;;25.73;38.73;97673.31;5050501;28;20128;-62
2023/10/10 14:57:05;;;;;;;14.32;4.43;;;;;;;25.53;39.28;97680.50;5030844;28;20120;-62
2023/10/10 14:59:33;;;;;;;15.23;4.20;;;;;;;25.44;39.68;97675.91;5035216;28;20049;-63
2023/10/10 15:02:00;;;;;;;15.10;5.03;;;;;;;25.32;40.22;97667.56;5036460;28;20124;-62